createdAt,value
2022-10-15T00:00:11.725Z,4.93
2022-10-15T00:01:44.826Z,5.37
2022-10-15T00:03:18.087Z,4.90
2022-10-15T00:04:50.780Z,5.47
2022-10-15T00:06:23.558Z,5.07
2022-10-15T00:07:56.297Z,4.93
2022-10-15T00:09:30.420Z,5.10
2022-10-15T00:11:08.605Z,5.37
2022-10-15T00:12:41.758Z,5.33
2022-10-15T00:14:14.493Z,4.90
2022-10-15T00:15:47.206Z,4.90
2022-10-15T00:17:20.128Z,4.57
2022-10-15T00:18:53.550Z,4.83
2022-10-15T00:20:26.472Z,4.70
2022-10-15T00:21:59.205Z,4.80
2022-10-15T00:23:31.417Z,4.50
2022-10-15T00:25:06.848Z,4.70
2022-10-15T00:26:39.562Z,4.27
2022-10-15T00:28:11.348Z,3.97
2022-10-15T00:29:44.113Z,3.87
2022-10-15T00:31:19.831Z,4.30
2022-10-15T00:32:52.537Z,4.23
2022-10-15T00:34:25.280Z,4.30
2022-10-15T00:36:02.004Z,4.53
2022-10-15T00:37:34.735Z,4.77
2022-10-15T00:39:08.621Z,4.80
2022-10-15T00:40:42.532Z,4.70
2022-10-15T00:42:15.552Z,5.00
2022-10-15T00:43:49.442Z,4.97
2022-10-15T00:45:22.377Z,4.60
2022-10-15T00:46:58.251Z,4.30
2022-10-15T00:48:31.828Z,5.43
2022-10-15T00:50:08.644Z,6.23
2022-10-15T00:51:45.597Z,5.27
2022-10-15T00:53:18.320Z,4.87
2022-10-15T00:54:52.898Z,4.03
2022-10-15T00:56:28.819Z,4.33
2022-10-15T00:58:06.434Z,4.30
2022-10-15T00:59:44.248Z,4.30
2022-10-15T01:01:17.191Z,3.80
2022-10-15T01:02:49.967Z,4.00
2022-10-15T01:04:24.497Z,4.07
2022-10-15T01:05:57.218Z,4.10
2022-10-15T01:07:30.049Z,3.53
2022-10-15T01:09:03.233Z,3.70
2022-10-15T01:10:45.837Z,3.53
2022-10-15T01:12:27.988Z,3.40
2022-10-15T01:14:08.498Z,3.90
2022-10-15T01:15:46.773Z,2.80
2022-10-15T01:17:24.286Z,3.90
2022-10-15T01:19:01.999Z,3.53
2022-10-15T01:20:53.037Z,3.97
2022-10-15T01:22:37.413Z,3.57
2022-10-15T01:24:35.471Z,4.00
2022-10-15T01:26:25.468Z,3.73
2022-10-15T01:28:10.569Z,4.00
2022-10-15T01:30:07.963Z,3.50
2022-10-15T01:31:45.879Z,3.97
2022-10-15T01:33:33.147Z,3.43
2022-10-15T01:35:11.738Z,3.73
2022-10-15T01:36:49.701Z,3.40
2022-10-15T01:38:38.184Z,3.43
2022-10-15T01:40:16.354Z,3.10
2022-10-15T01:41:55.294Z,3.20
2022-10-15T01:43:34.184Z,3.10
2022-10-15T01:45:10.894Z,2.90
2022-10-15T01:46:50.211Z,2.80
2022-10-15T01:48:23.684Z,2.90
2022-10-15T01:49:57.420Z,3.07
2022-10-15T01:51:31.777Z,3.40
2022-10-15T01:53:06.534Z,2.90
2022-10-15T01:54:40.581Z,2.67
2022-10-15T01:56:18.634Z,2.60
2022-10-15T01:57:51.811Z,2.60
2022-10-15T01:59:28.602Z,3.00
2022-10-15T02:01:01.618Z,3.17
2022-10-15T02:02:35.728Z,2.70
2022-10-15T02:04:19.735Z,3.57
2022-10-15T02:05:56.428Z,3.97
2022-10-15T02:07:37.465Z,3.33
2022-10-15T02:09:17.908Z,3.57
2022-10-15T02:10:54.004Z,3.03
2022-10-15T02:12:37.792Z,3.07
2022-10-15T02:14:16.441Z,3.13
2022-10-15T02:15:59.917Z,3.00
2022-10-15T02:17:39.548Z,3.37
2022-10-15T02:19:16.828Z,2.90
2022-10-15T02:20:55.825Z,3.50
2022-10-15T02:22:35.321Z,2.87
2022-10-15T02:24:11.627Z,4.00
2022-10-15T02:25:45.154Z,3.43
2022-10-15T02:27:19.356Z,3.30
2022-10-15T02:28:55.807Z,3.20
2022-10-15T02:30:30.635Z,3.10
2022-10-15T02:32:05.601Z,2.60
2022-10-15T02:33:40.142Z,2.90
2022-10-15T02:35:13.322Z,2.67
2022-10-15T02:36:46.584Z,2.80
2022-10-15T02:38:21.662Z,2.80
2022-10-15T02:39:54.529Z,2.60
2022-10-15T02:41:29.419Z,2.03
2022-10-15T02:43:04.232Z,2.20
2022-10-15T02:44:36.936Z,2.30
2022-10-15T02:46:11.279Z,2.20
2022-10-15T02:47:44.025Z,2.30
2022-10-15T02:49:17.140Z,2.23
2022-10-15T02:50:49.827Z,2.07
2022-10-15T02:52:22.823Z,2.23
2022-10-15T02:53:54.716Z,2.33
2022-10-15T02:55:27.749Z,2.60
2022-10-15T02:57:00.461Z,2.57
2022-10-15T02:58:33.181Z,2.83
2022-10-15T03:00:07.206Z,2.90
2022-10-15T03:01:39.921Z,3.07
2022-10-15T03:03:12.646Z,3.10
2022-10-15T03:04:46.848Z,3.23
2022-10-15T03:06:19.606Z,2.77
2022-10-15T03:07:52.318Z,3.27
2022-10-15T03:09:25.012Z,3.30
2022-10-15T03:11:00.337Z,3.57
2022-10-15T03:12:33.075Z,3.27
2022-10-15T03:14:05.980Z,3.40
2022-10-15T03:15:38.867Z,3.40
2022-10-15T03:17:11.564Z,3.80
2022-10-15T03:18:44.273Z,3.40
2022-10-15T03:20:18.452Z,2.93
2022-10-15T03:21:51.187Z,3.00
2022-10-15T03:23:25.189Z,3.00
2022-10-15T03:24:57.922Z,3.93
2022-10-15T03:26:30.776Z,3.53
2022-10-15T03:28:03.490Z,4.97
2022-10-15T03:29:36.338Z,4.23
2022-10-15T03:31:09.148Z,4.83
2022-10-15T03:34:19.565Z,4.87
2022-10-15T03:35:53.826Z,3.43
2022-10-15T03:37:26.732Z,4.00
2022-10-15T03:38:58.489Z,3.50
2022-10-15T03:40:31.441Z,4.83
2022-10-15T03:42:04.258Z,3.47
2022-10-15T03:43:40.248Z,4.93
2022-10-15T03:45:15.533Z,3.50
2022-10-15T03:46:47.276Z,3.57
2022-10-15T03:48:20.637Z,3.70
2022-10-15T03:49:53.331Z,3.73
2022-10-15T03:51:29.293Z,4.27
2022-10-15T03:53:05.032Z,4.53
2022-10-15T03:54:37.743Z,3.63
2022-10-15T03:56:09.508Z,4.40
2022-10-15T03:57:42.870Z,5.10
2022-10-15T03:59:14.619Z,4.50
2022-10-15T04:00:47.379Z,6.20
2022-10-15T04:02:20.190Z,4.80
2022-10-15T04:03:53.911Z,5.50
2022-10-15T04:05:26.657Z,6.70
2022-10-15T04:07:00.709Z,6.47
2022-10-15T04:08:33.668Z,6.03
2022-10-15T04:10:07.062Z,5.30
2022-10-15T04:11:39.775Z,5.20
2022-10-15T04:13:12.532Z,5.37
2022-10-15T04:14:44.293Z,4.83
2022-10-15T04:16:17.010Z,5.40
2022-10-15T04:17:49.799Z,5.53
2022-10-15T04:19:22.728Z,6.40
2022-10-15T04:20:55.429Z,5.50
2022-10-15T04:22:29.468Z,5.73
2022-10-15T04:24:02.164Z,5.27
2022-10-15T04:25:34.844Z,4.67
2022-10-15T04:27:07.613Z,4.43
2022-10-15T04:28:40.489Z,5.00
2022-10-15T04:30:14.079Z,6.13
2022-10-15T04:31:46.787Z,4.73
2022-10-15T04:33:18.618Z,5.07
2022-10-15T04:34:51.326Z,4.57
2022-10-15T04:36:24.047Z,4.80
2022-10-15T04:38:00.362Z,4.77
2022-10-15T04:39:33.068Z,4.47
2022-10-15T04:41:08.131Z,4.17
2022-10-15T04:42:40.864Z,4.33
2022-10-15T04:44:13.840Z,4.60
2022-10-15T04:45:46.537Z,4.60
2022-10-15T04:47:19.263Z,4.60
2022-10-15T04:48:52.701Z,4.70
2022-10-15T04:50:25.411Z,4.10
2022-10-15T04:51:58.125Z,4.17
2022-10-15T04:53:33.060Z,4.33
2022-10-15T04:55:06.527Z,4.40
2022-10-15T04:56:39.248Z,4.53
2022-10-15T04:58:11.965Z,4.40
2022-10-15T04:59:44.667Z,4.37
2022-10-15T05:01:18.550Z,3.67
2022-10-15T05:02:51.250Z,3.50
2022-10-15T05:04:24.057Z,3.30
2022-10-15T05:06:02.495Z,3.07
2022-10-15T05:07:35.219Z,3.00
2022-10-15T05:09:09.266Z,2.73
2022-10-15T05:10:41.006Z,3.17
2022-10-15T05:12:13.743Z,3.10
2022-10-15T05:13:45.788Z,4.43
2022-10-15T05:15:18.493Z,6.50
2022-10-15T05:16:51.188Z,4.50
2022-10-15T05:18:23.147Z,3.80
2022-10-15T05:19:55.840Z,5.07
2022-10-15T05:21:29.453Z,9.90
2022-10-15T05:23:01.186Z,6.37
2022-10-15T05:24:35.285Z,6.90
2022-10-15T05:26:11.788Z,4.20
2022-10-15T05:27:44.504Z,3.03
2022-10-15T05:29:17.217Z,4.10
2022-10-15T05:30:49.909Z,2.90
2022-10-15T05:33:57.011Z,2.93
2022-10-15T05:35:29.704Z,2.90
2022-10-15T05:37:02.414Z,2.80
2022-10-15T05:38:34.217Z,3.00
2022-10-15T05:40:09.723Z,2.63
2022-10-15T05:41:41.487Z,3.07
2022-10-15T05:43:14.182Z,3.17
2022-10-15T05:44:46.953Z,2.87
2022-10-15T05:46:20.408Z,3.40
2022-10-15T05:47:55.163Z,3.20
2022-10-15T05:49:27.842Z,3.47
2022-10-15T05:51:04.126Z,3.00
2022-10-15T05:52:36.839Z,2.70
2022-10-15T05:54:09.544Z,3.57
2022-10-15T05:55:43.572Z,3.60
2022-10-15T05:57:16.388Z,3.83
2022-10-15T05:58:49.365Z,4.03
2022-10-15T06:00:21.146Z,4.23
2022-10-15T06:01:53.867Z,5.97
2022-10-15T06:03:27.779Z,4.30
2022-10-15T06:05:00.607Z,4.57
2022-10-15T06:06:33.341Z,4.27
2022-10-15T06:08:05.214Z,4.83
2022-10-15T06:09:37.914Z,4.50
2022-10-15T06:11:12.155Z,4.30
2022-10-15T06:12:50.311Z,4.30
2022-10-15T06:14:23.022Z,4.97
2022-10-15T06:15:55.739Z,5.43
2022-10-15T06:17:27.504Z,4.73
2022-10-15T06:19:00.429Z,4.30
2022-10-15T06:20:33.139Z,3.50
2022-10-15T06:22:06.004Z,2.60
2022-10-15T06:23:39.318Z,1.90
2022-10-15T06:25:11.089Z,1.80
2022-10-15T06:26:45.129Z,1.80
2022-10-15T06:28:18.027Z,1.60
2022-10-15T06:29:50.871Z,1.60
2022-10-15T06:31:23.602Z,2.00
2022-10-15T06:32:56.331Z,2.07
2022-10-15T06:34:29.052Z,2.70
2022-10-15T06:36:03.193Z,2.90
2022-10-15T06:37:35.921Z,2.90
2022-10-15T06:39:08.714Z,2.63
2022-10-15T06:40:40.482Z,2.43
2022-10-15T06:42:14.686Z,2.40
2022-10-15T06:43:50.230Z,2.90
2022-10-15T06:45:22.968Z,2.97
2022-10-15T06:46:55.683Z,3.20
2022-10-15T06:48:28.613Z,3.87
2022-10-15T06:50:01.411Z,3.50
2022-10-15T06:51:34.350Z,3.40
2022-10-15T06:53:07.573Z,4.10
2022-10-15T06:54:40.294Z,3.83
2022-10-15T06:56:12.986Z,2.93
2022-10-15T06:57:47.022Z,2.40
2022-10-15T06:59:21.764Z,2.70
2022-10-15T07:00:54.648Z,2.30
2022-10-15T07:02:27.416Z,4.93
2022-10-15T07:04:00.110Z,3.10
2022-10-15T07:05:32.928Z,5.10
2022-10-15T07:07:05.683Z,2.90
2022-10-15T07:08:38.518Z,4.00
2022-10-15T07:10:11.363Z,8.00
2022-10-15T07:11:44.088Z,2.87
2022-10-15T07:13:18.132Z,2.50
2022-10-15T07:14:50.844Z,2.10
2022-10-15T07:16:23.566Z,3.07
2022-10-15T07:18:01.194Z,3.40
2022-10-15T07:19:33.911Z,2.80
2022-10-15T07:21:08.206Z,2.50
2022-10-15T07:22:39.955Z,4.20
2022-10-15T07:24:12.664Z,4.87
2022-10-15T07:25:45.369Z,4.03
2022-10-15T07:27:19.151Z,7.83
2022-10-15T07:28:53.574Z,3.17
2022-10-15T07:30:28.347Z,1.80
2022-10-15T07:32:01.050Z,1.50
2022-10-15T07:33:34.664Z,1.33
2022-10-15T07:35:07.888Z,1.10
2022-10-15T07:36:40.600Z,1.10
2022-10-15T07:38:13.627Z,1.00
2022-10-15T07:39:46.381Z,1.20
2022-10-15T07:41:19.212Z,1.10
2022-10-15T07:42:55.460Z,1.10
2022-10-15T07:44:29.516Z,1.00
2022-10-15T07:46:02.234Z,1.20
2022-10-15T07:47:34.965Z,1.27
2022-10-15T07:49:07.703Z,1.20
2022-10-15T07:50:42.314Z,1.07
2022-10-15T07:52:15.104Z,1.00
2022-10-15T07:53:48.274Z,1.00
2022-10-15T07:55:21.048Z,0.80
2022-10-15T07:56:53.756Z,0.83
2022-10-15T07:58:26.722Z,1.07
2022-10-15T08:00:00.844Z,1.10
2022-10-15T08:01:33.544Z,0.83
2022-10-15T08:03:06.427Z,1.00
2022-10-15T08:04:39.141Z,1.20
2022-10-15T08:06:11.876Z,1.10
2022-10-15T08:07:44.591Z,1.00
2022-10-15T08:09:17.579Z,1.00
2022-10-15T08:10:50.332Z,2.40
2022-10-15T08:12:23.341Z,1.57
2022-10-15T08:13:56.322Z,1.60
2022-10-15T08:15:30.386Z,1.43
2022-10-15T08:17:03.631Z,1.40
2022-10-15T08:18:37.521Z,1.40
2022-10-15T08:20:11.005Z,1.20
2022-10-15T08:21:45.252Z,1.67
2022-10-15T08:23:20.113Z,1.33
2022-10-15T08:24:53.098Z,1.40
2022-10-15T08:26:26.555Z,1.60
2022-10-15T08:27:59.712Z,1.80
2022-10-15T08:29:32.457Z,2.00
2022-10-15T08:31:06.718Z,1.50
2022-10-15T08:32:39.417Z,1.70
2022-10-15T08:34:12.146Z,2.67
2022-10-15T08:35:44.940Z,1.57
2022-10-15T08:37:17.775Z,1.73
2022-10-15T08:38:50.502Z,1.50
2022-10-15T08:40:23.480Z,1.87
2022-10-15T08:41:58.637Z,1.50
2022-10-15T08:43:37.194Z,1.53
2022-10-15T08:45:14.959Z,1.73
2022-10-15T08:46:51.890Z,1.43
2022-10-15T08:48:31.227Z,1.70
2022-10-15T08:50:07.448Z,1.70
2022-10-15T08:51:45.607Z,1.40
2022-10-15T08:53:22.152Z,1.60
2022-10-15T08:54:56.923Z,1.50
2022-10-15T08:56:34.580Z,1.97
2022-10-15T08:58:14.790Z,1.87
2022-10-15T08:59:55.390Z,1.80
2022-10-15T09:01:33.181Z,2.03
2022-10-15T09:03:20.795Z,1.80
2022-10-15T09:05:02.369Z,2.10
2022-10-15T09:06:37.489Z,2.13
2022-10-15T09:08:21.444Z,2.40
2022-10-15T09:10:00.457Z,2.30
2022-10-15T09:11:43.189Z,2.57
2022-10-15T09:13:23.145Z,2.67
2022-10-15T09:14:58.542Z,2.50
2022-10-15T09:16:36.481Z,2.40
2022-10-15T09:18:18.035Z,2.77
2022-10-15T09:19:52.827Z,2.70
2022-10-15T09:21:26.537Z,2.60
2022-10-15T09:22:59.451Z,2.27
2022-10-15T09:24:33.056Z,2.40
2022-10-15T09:26:17.364Z,3.03
2022-10-15T09:27:52.368Z,2.50
2022-10-15T09:29:31.711Z,2.70
2022-10-15T09:31:05.657Z,2.60
2022-10-15T09:32:45.360Z,2.90
2022-10-15T09:34:28.374Z,3.00
2022-10-15T09:36:09.821Z,2.93
2022-10-15T09:37:49.644Z,3.00
2022-10-15T09:39:44.350Z,3.30
2022-10-15T09:41:24.028Z,2.90
2022-10-15T09:42:58.550Z,2.03
2022-10-15T09:44:37.416Z,2.10
2022-10-15T09:46:11.813Z,1.60
2022-10-15T09:47:46.563Z,1.90
2022-10-15T09:49:25.215Z,1.77
2022-10-15T09:51:03.643Z,1.40
2022-10-15T09:52:57.486Z,1.50
2022-10-15T09:54:40.109Z,1.50
2022-10-15T09:56:16.049Z,1.40
2022-10-15T09:57:51.113Z,1.47
2022-10-15T09:59:25.115Z,1.30
2022-10-15T10:01:00.556Z,1.13
2022-10-15T10:02:33.358Z,1.27
2022-10-15T10:04:14.942Z,1.37
2022-10-15T10:05:50.140Z,1.07
2022-10-15T10:07:33.344Z,1.20
2022-10-15T10:09:06.153Z,1.20
2022-10-15T10:10:41.817Z,1.10
2022-10-15T10:12:21.550Z,1.20
2022-10-15T10:13:57.685Z,1.30
2022-10-15T10:15:35.173Z,1.10
2022-10-15T10:17:16.169Z,1.30
2022-10-15T10:19:04.391Z,1.30
2022-10-15T10:20:37.290Z,1.00
2022-10-15T10:22:16.944Z,1.17
2022-10-15T10:23:49.905Z,1.30
2022-10-15T10:25:42.349Z,1.03
2022-10-15T10:27:21.964Z,1.23
2022-10-15T10:29:05.022Z,1.03
2022-10-15T10:30:51.181Z,1.20
2022-10-15T10:32:28.429Z,1.30
2022-10-15T10:34:03.212Z,1.30
2022-10-15T10:35:45.275Z,1.60
2022-10-15T10:37:19.525Z,1.77
2022-10-15T10:39:03.468Z,1.10
2022-10-15T10:40:37.172Z,1.27
2022-10-15T10:42:26.784Z,1.17
2022-10-15T10:43:59.529Z,1.10
2022-10-15T10:45:34.810Z,1.23
2022-10-15T10:47:13.733Z,1.00
2022-10-15T10:48:48.623Z,0.90
2022-10-15T10:50:32.308Z,1.00
2022-10-15T10:52:05.823Z,1.10
2022-10-15T10:53:48.906Z,0.97
2022-10-15T10:55:25.085Z,0.90
2022-10-15T10:56:59.417Z,1.07
2022-10-15T10:58:35.098Z,1.23
2022-10-15T11:00:09.670Z,0.90
2022-10-15T11:01:42.769Z,0.70
2022-10-15T11:03:23.547Z,1.00
2022-10-15T11:04:56.354Z,0.80
2022-10-15T11:06:46.225Z,0.90
2022-10-15T11:08:27.198Z,1.07
2022-10-15T11:10:08.325Z,1.17
2022-10-15T11:11:52.115Z,0.90
2022-10-15T11:13:40.685Z,1.00
2022-10-15T11:15:31.677Z,0.90
2022-10-15T11:17:13.211Z,1.00
2022-10-15T11:18:57.622Z,1.10
2022-10-15T11:20:52.991Z,1.10
2022-10-15T11:22:49.098Z,1.40
2022-10-15T11:24:33.517Z,1.30
2022-10-15T11:26:37.205Z,1.20
2022-10-15T11:28:31.860Z,1.30
2022-10-15T11:30:09.865Z,1.13
2022-10-15T11:32:02.073Z,1.20
2022-10-15T11:33:52.318Z,1.13
2022-10-15T11:35:58.492Z,1.17
2022-10-15T11:37:42.126Z,1.30
2022-10-15T11:39:42.925Z,1.00
2022-10-15T11:41:30.303Z,1.10
2022-10-15T11:43:09.072Z,1.20
2022-10-15T11:44:58.451Z,1.00
2022-10-15T11:46:44.081Z,1.03
2022-10-15T11:48:29.445Z,0.80
2022-10-15T11:50:18.332Z,0.80
2022-10-15T11:52:07.037Z,0.70
2022-10-15T11:53:58.420Z,0.70
2022-10-15T11:55:39.503Z,0.70
2022-10-15T11:57:16.874Z,0.70
2022-10-15T11:58:53.305Z,0.70
2022-10-15T12:00:33.071Z,0.60
2022-10-15T12:02:12.200Z,0.57
2022-10-15T12:03:52.201Z,0.80
2022-10-15T12:05:30.129Z,0.60
2022-10-15T12:07:04.965Z,0.40
2022-10-15T12:08:40.834Z,0.60
2022-10-15T12:10:28.378Z,0.43
2022-10-15T12:12:07.450Z,0.47
2022-10-15T12:13:46.743Z,0.70
2022-10-15T12:15:30.756Z,0.50
2022-10-15T12:18:53.561Z,0.50
2022-10-15T12:20:28.222Z,0.50
2022-10-15T12:22:11.303Z,0.50
2022-10-15T12:23:44.446Z,0.30
2022-10-15T12:25:42.773Z,0.40
2022-10-15T12:27:35.349Z,0.30
2022-10-15T12:29:21.793Z,0.37
2022-10-15T12:30:57.358Z,0.30
2022-10-15T12:32:37.089Z,0.30
2022-10-15T12:34:28.104Z,0.30
2022-10-15T12:36:02.595Z,0.27
2022-10-15T12:37:36.891Z,0.30
2022-10-15T12:39:47.708Z,0.30
2022-10-15T12:41:16.694Z,0.40
2022-10-15T12:42:51.189Z,0.30
2022-10-15T12:44:28.754Z,0.30
2022-10-15T12:46:03.935Z,0.30
2022-10-15T12:47:49.994Z,0.27
2022-10-15T12:49:46.985Z,0.40
2022-10-15T12:51:41.296Z,0.20
2022-10-15T12:53:34.155Z,0.20
2022-10-15T12:55:24.527Z,0.20
2022-10-15T12:56:57.262Z,0.30
2022-10-15T12:58:35.455Z,0.40
2022-10-15T13:00:37.604Z,0.20
2022-10-15T13:02:35.007Z,0.30
2022-10-15T13:04:07.844Z,0.27
2022-10-15T13:05:39.702Z,0.30
2022-10-15T13:07:15.266Z,0.20
2022-10-15T13:08:50.629Z,0.30
2022-10-15T13:10:28.670Z,0.23
2022-10-15T13:12:02.278Z,0.20
2022-10-15T13:13:36.035Z,0.20
2022-10-15T13:15:15.419Z,0.20
2022-10-15T13:16:50.529Z,0.13
2022-10-15T13:18:24.334Z,0.20
2022-10-15T13:19:59.368Z,0.20
2022-10-15T13:21:49.493Z,0.23
2022-10-15T13:23:32.806Z,0.30
2022-10-15T13:25:15.925Z,0.20
2022-10-15T13:26:48.878Z,0.20
2022-10-15T13:28:33.505Z,0.20
2022-10-15T13:30:08.039Z,0.30
2022-10-15T13:31:44.887Z,0.10
2022-10-15T13:33:18.978Z,0.20
2022-10-15T13:34:52.084Z,0.20
2022-10-15T13:36:26.857Z,0.20
2022-10-15T13:38:00.593Z,0.20
2022-10-15T13:39:36.415Z,0.20
2022-10-15T13:41:09.966Z,0.20
2022-10-15T13:43:00.042Z,0.23
2022-10-15T13:44:32.798Z,0.27
2022-10-15T13:46:05.759Z,0.30
2022-10-15T13:47:42.173Z,0.30
2022-10-15T13:49:16.273Z,0.20
2022-10-15T13:50:51.116Z,0.20
2022-10-15T13:52:23.965Z,0.20
2022-10-15T13:53:57.031Z,0.20
2022-10-15T13:55:33.420Z,0.20
2022-10-15T13:57:06.206Z,0.20
2022-10-15T13:58:39.590Z,0.10
2022-10-15T14:00:21.625Z,0.20
2022-10-15T14:02:00.799Z,0.10
2022-10-15T14:03:35.736Z,0.20
2022-10-15T14:05:18.876Z,0.20
2022-10-15T14:08:37.793Z,0.20
2022-10-15T14:10:12.201Z,0.20
2022-10-15T14:11:45.143Z,0.27
2022-10-15T14:13:18.025Z,0.30
2022-10-15T14:14:50.812Z,0.27
2022-10-15T14:16:29.055Z,0.20
2022-10-15T14:18:01.824Z,0.30
2022-10-15T14:19:36.258Z,0.30
2022-10-15T14:21:13.208Z,0.10
2022-10-15T14:22:49.914Z,0.30
2022-10-15T14:24:25.488Z,0.30
2022-10-15T14:26:00.544Z,0.30
2022-10-15T14:27:33.297Z,0.40
2022-10-15T14:29:06.744Z,0.40
2022-10-15T14:30:42.830Z,0.20
2022-10-15T14:32:24.673Z,0.30
2022-10-15T14:33:57.407Z,0.30
2022-10-15T14:35:33.620Z,0.20
2022-10-15T14:37:33.606Z,0.27
2022-10-15T14:39:28.360Z,0.20
2022-10-15T14:41:06.422Z,0.20
2022-10-15T14:42:41.728Z,0.30
2022-10-15T14:44:19.986Z,0.30
2022-10-15T14:45:58.830Z,0.20
2022-10-15T14:47:33.009Z,0.20
2022-10-15T14:49:14.698Z,0.20
2022-10-15T14:50:47.632Z,0.10
2022-10-15T14:52:22.648Z,0.27
2022-10-15T14:53:57.142Z,0.20
2022-10-15T14:55:33.333Z,0.30
2022-10-15T14:57:15.684Z,0.37
2022-10-15T14:58:52.235Z,0.30
2022-10-15T15:00:27.505Z,0.30
2022-10-15T15:02:03.211Z,0.40
2022-10-15T15:03:41.774Z,0.40
2022-10-15T15:05:23.715Z,0.33
2022-10-15T15:06:56.438Z,0.30
2022-10-15T15:08:29.209Z,0.40
2022-10-15T15:10:03.766Z,0.40
2022-10-15T15:11:38.104Z,0.30
2022-10-15T15:13:13.091Z,0.40
2022-10-15T15:14:46.039Z,0.30
2022-10-15T15:16:19.933Z,0.30
2022-10-15T15:17:52.730Z,0.30
2022-10-15T15:19:25.470Z,0.30
2022-10-15T15:21:02.097Z,0.40
2022-10-15T15:22:35.376Z,0.30
2022-10-15T15:24:09.521Z,0.30
2022-10-15T15:25:43.579Z,0.30
2022-10-15T15:27:26.011Z,0.40
2022-10-15T15:28:59.339Z,0.33
2022-10-15T15:30:34.241Z,0.30
2022-10-15T15:32:07.004Z,0.40
2022-10-15T15:33:41.178Z,0.60
2022-10-15T15:35:21.086Z,0.50
2022-10-15T15:36:54.331Z,0.47
2022-10-15T15:38:30.644Z,0.30
2022-10-15T15:40:03.522Z,0.30
2022-10-15T15:41:37.583Z,0.30
2022-10-15T15:43:12.795Z,0.20
2022-10-15T15:44:45.673Z,0.37
2022-10-15T15:46:18.615Z,0.40
2022-10-15T15:47:51.682Z,0.20
2022-10-15T15:49:23.621Z,0.40
2022-10-15T15:50:59.662Z,0.40
2022-10-15T15:52:34.019Z,0.40
2022-10-15T15:54:10.484Z,0.30
2022-10-15T15:55:43.469Z,0.30
2022-10-15T15:57:17.529Z,0.20
2022-10-15T15:58:50.582Z,0.50
2022-10-15T16:00:23.336Z,0.30
2022-10-15T16:01:56.200Z,0.30
2022-10-15T16:03:29.034Z,0.30
2022-10-15T16:05:02.460Z,0.30
2022-10-15T16:06:35.170Z,0.40
2022-10-15T16:08:09.407Z,0.40
2022-10-15T16:09:42.189Z,0.30
2022-10-15T16:11:14.919Z,0.40
2022-10-15T16:12:48.976Z,0.53
2022-10-15T16:14:21.690Z,0.50
2022-10-15T16:15:54.407Z,0.50
2022-10-15T16:17:27.381Z,0.80
2022-10-15T16:19:00.463Z,0.77
2022-10-15T16:20:35.717Z,0.83
2022-10-15T16:22:08.510Z,0.80
2022-10-15T16:23:42.275Z,3.80
2022-10-15T16:25:15.026Z,0.37
2022-10-15T16:26:47.764Z,1.00
2022-10-15T16:28:21.829Z,0.50
2022-10-15T16:29:54.576Z,0.40
2022-10-15T16:31:30.557Z,0.60
2022-10-15T16:33:03.376Z,2.43
2022-10-15T16:34:36.192Z,1.20
2022-10-15T16:36:09.323Z,5.23
2022-10-15T16:37:42.032Z,2.10
2022-10-15T16:39:14.744Z,3.50
2022-10-15T16:40:48.104Z,1.40
2022-10-15T16:42:20.853Z,1.30
2022-10-15T16:43:54.919Z,4.23
2022-10-15T16:45:27.729Z,0.57
2022-10-15T16:47:00.473Z,2.60
2022-10-15T16:48:34.432Z,1.17
2022-10-15T16:50:08.502Z,1.20
2022-10-15T16:51:43.567Z,1.30
2022-10-15T16:53:17.200Z,1.10
2022-10-15T16:54:49.912Z,1.20
2022-10-15T16:56:24.861Z,1.10
2022-10-15T16:57:57.717Z,0.80
2022-10-15T16:59:31.897Z,0.77
2022-10-15T17:01:06.700Z,0.50
2022-10-15T17:02:39.559Z,0.77
2022-10-15T17:04:12.557Z,0.53
2022-10-15T17:05:45.290Z,0.80
2022-10-15T17:07:18.090Z,0.70
2022-10-15T17:08:52.352Z,0.73
2022-10-15T17:10:25.774Z,0.70
2022-10-15T17:11:58.570Z,0.70
2022-10-15T17:13:31.291Z,0.70
2022-10-15T17:15:06.125Z,0.90
2022-10-15T17:16:39.895Z,0.87
2022-10-15T17:18:12.616Z,0.80
2022-10-15T17:19:45.416Z,0.70
2022-10-15T17:21:19.996Z,0.90
2022-10-15T17:22:52.709Z,0.90
2022-10-15T17:24:25.446Z,0.93
2022-10-15T17:25:58.186Z,1.00
2022-10-15T17:27:30.928Z,0.80
2022-10-15T17:29:04.706Z,0.90
2022-10-15T17:30:39.224Z,0.70
2022-10-15T17:32:11.942Z,0.70
2022-10-15T17:33:46.397Z,0.70
2022-10-15T17:35:19.652Z,1.00
2022-10-15T17:36:53.841Z,1.23
2022-10-15T17:38:26.555Z,0.90
2022-10-15T17:39:59.790Z,0.90
2022-10-15T17:41:32.818Z,0.70
2022-10-15T17:43:05.559Z,0.83
2022-10-15T17:44:38.273Z,0.70
2022-10-15T17:46:13.929Z,0.80
2022-10-15T17:47:46.665Z,0.57
2022-10-15T17:49:19.411Z,0.60
2022-10-15T17:50:52.235Z,1.40
2022-10-15T17:52:25.122Z,0.70
2022-10-15T17:53:59.153Z,0.73
2022-10-15T17:55:31.986Z,0.90
2022-10-15T17:57:04.806Z,0.87
2022-10-15T17:58:37.536Z,0.97
2022-10-15T18:00:11.796Z,0.80
2022-10-15T18:02:01.404Z,0.80
2022-10-15T18:03:34.209Z,0.77
2022-10-15T18:05:07.720Z,0.83
2022-10-15T18:06:44.621Z,0.80
2022-10-15T18:08:17.534Z,0.70
2022-10-15T18:09:50.294Z,0.63
2022-10-15T18:11:25.101Z,0.70
2022-10-15T18:12:57.913Z,0.90
2022-10-15T18:14:30.826Z,0.80
2022-10-15T18:16:03.628Z,0.90
2022-10-15T18:17:37.724Z,0.87
2022-10-15T18:19:10.601Z,0.87
2022-10-15T18:20:45.091Z,0.73
2022-10-15T18:22:17.897Z,0.80
2022-10-15T18:23:50.635Z,0.80
2022-10-15T18:25:23.686Z,0.60
2022-10-15T18:26:56.393Z,0.80
2022-10-15T18:28:28.328Z,0.70
2022-10-15T18:30:01.070Z,0.73
2022-10-15T18:31:33.768Z,0.80
2022-10-15T18:33:10.592Z,0.40
2022-10-15T18:34:43.361Z,0.60
2022-10-15T18:36:18.184Z,0.73
2022-10-15T18:37:51.458Z,0.70
2022-10-15T18:39:24.617Z,0.70
2022-10-15T18:40:57.346Z,0.50
2022-10-15T18:42:30.053Z,0.60
2022-10-15T18:44:04.705Z,0.60
2022-10-15T18:45:38.291Z,0.63
2022-10-15T18:47:11.561Z,0.57
2022-10-15T18:48:45.934Z,0.60
2022-10-15T18:50:18.757Z,0.60
2022-10-15T18:51:52.918Z,0.60
2022-10-15T18:53:26.826Z,0.63
2022-10-15T18:54:59.638Z,1.00
2022-10-15T18:56:32.386Z,0.90
2022-10-15T18:58:05.572Z,1.00
2022-10-15T18:59:38.308Z,0.90
2022-10-15T19:01:11.861Z,0.90
2022-10-15T19:02:44.716Z,0.80
2022-10-15T19:04:20.365Z,0.80
2022-10-15T19:05:53.193Z,0.63
2022-10-15T19:07:26.013Z,0.70
2022-10-15T19:08:59.591Z,0.80
2022-10-15T19:10:32.484Z,0.87
2022-10-15T19:12:05.602Z,0.83
2022-10-15T19:13:38.373Z,0.70
2022-10-15T19:15:11.650Z,0.80
2022-10-15T19:16:45.090Z,0.67
2022-10-15T19:18:18.038Z,0.80
2022-10-15T19:19:52.134Z,0.73
2022-10-15T19:21:24.941Z,0.63
2022-10-15T19:22:57.695Z,0.70
2022-10-15T19:24:30.543Z,0.70
2022-10-15T19:26:07.063Z,1.00
2022-10-15T19:27:39.846Z,0.73
2022-10-15T19:29:12.969Z,0.90
2022-10-15T19:30:45.760Z,0.80
2022-10-15T19:32:18.494Z,0.93
2022-10-15T19:33:51.278Z,1.10
2022-10-15T19:35:25.341Z,1.00
2022-10-15T19:36:58.052Z,0.90
2022-10-15T19:38:30.165Z,1.00
2022-10-15T19:40:03.535Z,1.00
2022-10-15T19:41:37.324Z,0.97
2022-10-15T19:43:10.031Z,1.03
2022-10-15T19:44:43.034Z,1.10
2022-10-15T19:46:16.259Z,1.00
2022-10-15T19:47:49.014Z,0.80
2022-10-15T19:49:21.895Z,1.03
2022-10-15T19:50:55.970Z,1.00
2022-10-15T19:52:28.680Z,1.30
2022-10-15T19:54:01.624Z,0.90
2022-10-15T19:55:35.429Z,1.00
2022-10-15T19:57:08.197Z,0.97
2022-10-15T19:58:40.914Z,0.80
2022-10-15T20:00:14.927Z,0.80
2022-10-15T20:01:47.714Z,0.90
2022-10-15T20:03:19.741Z,0.73
2022-10-15T20:04:52.517Z,0.77
2022-10-15T20:06:26.895Z,0.80
2022-10-15T20:07:59.626Z,0.80
2022-10-15T20:09:32.426Z,0.90
2022-10-15T20:11:07.453Z,1.10
2022-10-15T20:12:40.284Z,1.00
2022-10-15T20:14:13.049Z,0.90
2022-10-15T20:15:49.083Z,0.80
2022-10-15T20:17:21.881Z,0.63
2022-10-15T20:18:56.264Z,0.70
2022-10-15T20:20:28.997Z,0.70
2022-10-15T20:22:03.078Z,0.67
2022-10-15T20:23:34.936Z,0.70
2022-10-15T20:25:08.150Z,0.70
2022-10-15T20:26:40.868Z,0.70
2022-10-15T20:28:15.355Z,0.80
2022-10-15T20:29:48.080Z,0.70
2022-10-15T20:31:21.648Z,0.60
2022-10-15T20:32:54.482Z,0.70
2022-10-15T20:34:27.207Z,0.80
2022-10-15T20:36:04.560Z,0.67
2022-10-15T20:37:38.691Z,0.90
2022-10-15T20:39:11.688Z,0.70
2022-10-15T20:40:43.474Z,0.70
2022-10-15T20:42:16.282Z,0.80
2022-10-15T20:43:54.782Z,0.60
2022-10-15T20:45:30.806Z,0.60
2022-10-15T20:47:06.958Z,0.70
2022-10-15T20:48:41.470Z,0.60
2022-10-15T20:50:18.089Z,0.70
2022-10-15T20:51:51.933Z,0.60
2022-10-15T20:53:27.526Z,0.63
2022-10-15T20:55:00.608Z,0.80
2022-10-15T20:56:33.496Z,0.60
2022-10-15T20:58:06.273Z,0.70
2022-10-15T20:59:39.029Z,0.70
2022-10-15T21:01:12.000Z,0.70
2022-10-15T21:02:44.773Z,0.70
2022-10-15T21:04:16.565Z,0.63
2022-10-15T21:05:49.321Z,0.60
2022-10-15T21:07:24.432Z,0.60
2022-10-15T21:08:58.885Z,0.60
2022-10-15T21:10:31.687Z,0.60
2022-10-15T21:12:05.758Z,0.60
2022-10-15T21:13:40.265Z,0.70
2022-10-15T21:15:13.003Z,0.57
2022-10-15T21:16:45.768Z,0.60
2022-10-15T21:18:18.489Z,0.80
2022-10-15T21:19:52.841Z,0.80